sensor_id;sensor_type;location;lat;lon;timestamp;P1;durP1;ratioP1;P2;durP2;ratioP2
1054;SDS011;516;51.482;7.120;2022-09-09T00:00:29;2.43;;;2.20;;
1054;SDS011;516;51.482;7.120;2022-09-09T00:06:30;2.00;;;1.83;;
1054;SDS011;516;51.482;7.120;2022-09-09T00:12:24;4.00;;;1.97;;
1054;SDS011;516;51.482;7.120;2022-09-09T00:25:23;2.17;;;1.40;;
1054;SDS011;516;51.482;7.120;2022-09-09T00:31:57;3.17;;;1.90;;
1054;SDS011;516;51.482;7.120;2022-09-09T00:37:53;3.73;;;2.27;;
1054;SDS011;516;51.482;7.120;2022-09-09T01:02:55;3.00;;;2.60;;
1054;SDS011;516;51.482;7.120;2022-09-09T01:18:19;3.60;;;2.57;;
1054;SDS011;516;51.482;7.120;2022-09-09T01:24:19;4.17;;;2.70;;
1054;SDS011;516;51.482;7.120;2022-09-09T01:30:44;6.57;;;3.53;;
1054;SDS011;516;51.482;7.120;2022-09-09T01:39:53;6.33;;;3.30;;
1054;SDS011;516;51.482;7.120;2022-09-09T01:45:22;3.60;;;3.10;;
1054;SDS011;516;51.482;7.120;2022-09-09T01:51:11;5.70;;;3.20;;
1054;SDS011;516;51.482;7.120;2022-09-09T01:57:06;7.47;;;3.50;;
1054;SDS011;516;51.482;7.120;2022-09-09T02:03:34;6.37;;;4.63;;
1054;SDS011;516;51.482;7.120;2022-09-09T02:09:23;6.43;;;4.13;;
1054;SDS011;516;51.482;7.120;2022-09-09T02:15:18;9.37;;;5.10;;
1054;SDS011;516;51.482;7.120;2022-09-09T02:21:47;5.93;;;4.30;;
1054;SDS011;516;51.482;7.120;2022-09-09T02:27:35;5.87;;;3.87;;
1054;SDS011;516;51.482;7.120;2022-09-09T02:33:24;6.30;;;4.40;;
1054;SDS011;516;51.482;7.120;2022-09-09T02:36:12;7.13;;;4.73;;
1054;SDS011;516;51.482;7.120;2022-09-09T02:38:42;9.57;;;4.40;;
1054;SDS011;516;51.482;7.120;2022-09-09T02:44:36;10.10;;;4.47;;
1054;SDS011;516;51.482;7.120;2022-09-09T02:50:34;4.80;;;3.73;;
1054;SDS011;516;51.482;7.120;2022-09-09T02:56:30;9.33;;;5.00;;
1054;SDS011;516;51.482;7.120;2022-09-09T03:02:24;6.03;;;4.73;;
1054;SDS011;516;51.482;7.120;2022-09-09T03:11:33;8.30;;;4.97;;
1054;SDS011;516;51.482;7.120;2022-09-09T03:17:20;5.67;;;3.93;;
1054;SDS011;516;51.482;7.120;2022-09-09T03:23:07;7.23;;;4.20;;
1054;SDS011;516;51.482;7.120;2022-09-09T03:28:55;5.93;;;3.97;;
1054;SDS011;516;51.482;7.120;2022-09-09T03:34:43;8.20;;;3.30;;
1054;SDS011;516;51.482;7.120;2022-09-09T03:49:50;6.13;;;3.60;;
1054;SDS011;516;51.482;7.120;2022-09-09T03:55:38;4.70;;;3.17;;
1054;SDS011;516;51.482;7.120;2022-09-09T04:01:25;7.10;;;3.27;;
1054;SDS011;516;51.482;7.120;2022-09-09T04:07:14;5.23;;;3.00;;
1054;SDS011;516;51.482;7.120;2022-09-09T04:13:01;4.50;;;2.90;;
1054;SDS011;516;51.482;7.120;2022-09-09T04:18:50;7.20;;;4.43;;
1054;SDS011;516;51.482;7.120;2022-09-09T04:24:39;6.70;;;3.97;;
1054;SDS011;516;51.482;7.120;2022-09-09T04:30:27;7.40;;;3.60;;
1054;SDS011;516;51.482;7.120;2022-09-09T04:36:15;5.27;;;3.10;;
1054;SDS011;516;51.482;7.120;2022-09-09T04:42:12;5.97;;;3.93;;
1054;SDS011;516;51.482;7.120;2022-09-09T04:47:59;11.80;;;4.33;;
1054;SDS011;516;51.482;7.120;2022-09-09T04:53:47;9.57;;;4.10;;
1054;SDS011;516;51.482;7.120;2022-09-09T04:59:35;6.00;;;3.83;;
1054;SDS011;516;51.482;7.120;2022-09-09T05:05:22;7.43;;;3.60;;
1054;SDS011;516;51.482;7.120;2022-09-09T05:17:09;9.53;;;3.33;;
1054;SDS011;516;51.482;7.120;2022-09-09T05:22:57;12.40;;;4.17;;
1054;SDS011;516;51.482;7.120;2022-09-09T05:28:45;9.17;;;3.70;;
1054;SDS011;516;51.482;7.120;2022-09-09T05:34:34;7.33;;;3.73;;
1054;SDS011;516;51.482;7.120;2022-09-09T05:40:21;12.83;;;5.77;;
1054;SDS011;516;51.482;7.120;2022-09-09T05:46:13;7.03;;;3.93;;
1054;SDS011;516;51.482;7.120;2022-09-09T05:52:02;9.03;;;4.27;;
1054;SDS011;516;51.482;7.120;2022-09-09T05:57:51;8.57;;;3.77;;
1054;SDS011;516;51.482;7.120;2022-09-09T06:03:39;7.13;;;3.67;;
1054;SDS011;516;51.482;7.120;2022-09-09T06:09:28;6.83;;;3.63;;
1054;SDS011;516;51.482;7.120;2022-09-09T06:15:18;9.33;;;3.30;;
1054;SDS011;516;51.482;7.120;2022-09-09T06:21:07;5.87;;;3.30;;
1054;SDS011;516;51.482;7.120;2022-09-09T06:27:00;10.20;;;3.73;;
1054;SDS011;516;51.482;7.120;2022-09-09T06:32:48;5.20;;;3.30;;
1054;SDS011;516;51.482;7.120;2022-09-09T06:38:37;6.70;;;3.17;;
1054;SDS011;516;51.482;7.120;2022-09-09T06:44:25;7.33;;;3.20;;
1054;SDS011;516;51.482;7.120;2022-09-09T06:53:39;4.53;;;3.20;;
1054;SDS011;516;51.482;7.120;2022-09-09T06:59:28;6.47;;;3.50;;
1054;SDS011;516;51.482;7.120;2022-09-09T07:05:17;7.33;;;3.03;;
1054;SDS011;516;51.482;7.120;2022-09-09T07:11:05;6.57;;;3.30;;
1054;SDS011;516;51.482;7.120;2022-09-09T07:16:55;5.73;;;2.60;;
1054;SDS011;516;51.482;7.120;2022-09-09T07:22:43;4.37;;;2.43;;
1054;SDS011;516;51.482;7.120;2022-09-09T07:28:31;7.80;;;2.77;;
1054;SDS011;516;51.482;7.120;2022-09-09T07:34:18;7.60;;;2.40;;
1054;SDS011;516;51.482;7.120;2022-09-09T07:40:06;8.10;;;2.67;;
1054;SDS011;516;51.482;7.120;2022-09-09T07:45:46;9.70;;;3.50;;
1054;SDS011;516;51.482;7.120;2022-09-09T07:51:35;5.67;;;3.43;;
1054;SDS011;516;51.482;7.120;2022-09-09T07:57:24;4.57;;;2.10;;
1054;SDS011;516;51.482;7.120;2022-09-09T08:03:12;3.00;;;2.20;;
1054;SDS011;516;51.482;7.120;2022-09-09T08:09:00;3.60;;;2.30;;
1054;SDS011;516;51.482;7.120;2022-09-09T08:14:48;7.80;;;2.03;;
1054;SDS011;516;51.482;7.120;2022-09-09T08:20:36;4.23;;;2.20;;
1054;SDS011;516;51.482;7.120;2022-09-09T08:26:26;5.80;;;2.03;;
1054;SDS011;516;51.482;7.120;2022-09-09T08:32:18;7.03;;;3.57;;
1054;SDS011;516;51.482;7.120;2022-09-09T08:38:06;8.23;;;3.00;;
1054;SDS011;516;51.482;7.120;2022-09-09T08:53:42;4.90;;;2.90;;
1054;SDS011;516;51.482;7.120;2022-09-09T08:59:33;5.43;;;2.93;;
1054;SDS011;516;51.482;7.120;2022-09-09T09:05:44;4.60;;;2.80;;
1054;SDS011;516;51.482;7.120;2022-09-09T09:22:22;4.53;;;2.50;;
1054;SDS011;516;51.482;7.120;2022-09-09T09:28:19;4.80;;;2.57;;
1054;SDS011;516;51.482;7.120;2022-09-09T09:34:31;6.90;;;2.30;;
1054;SDS011;516;51.482;7.120;2022-09-09T09:40:19;2.70;;;2.27;;
1054;SDS011;516;51.482;7.120;2022-09-09T09:45:48;5.80;;;2.97;;
1054;SDS011;516;51.482;7.120;2022-09-09T09:51:35;4.47;;;2.50;;
1054;SDS011;516;51.482;7.120;2022-09-09T09:57:28;4.57;;;2.57;;
1054;SDS011;516;51.482;7.120;2022-09-09T10:03:20;4.00;;;2.63;;
1054;SDS011;516;51.482;7.120;2022-09-09T10:09:31;5.90;;;3.20;;
1054;SDS011;516;51.482;7.120;2022-09-09T10:22:22;5.13;;;2.97;;
1054;SDS011;516;51.482;7.120;2022-09-09T10:38:42;3.00;;;2.43;;
1054;SDS011;516;51.482;7.120;2022-09-09T10:59:42;3.97;;;3.23;;
1054;SDS011;516;51.482;7.120;2022-09-09T11:05:39;3.60;;;2.90;;
1054;SDS011;516;51.482;7.120;2022-09-09T11:11:39;5.10;;;3.20;;
1054;SDS011;516;51.482;7.120;2022-09-09T11:47:51;3.40;;;3.10;;
1054;SDS011;516;51.482;7.120;2022-09-09T11:53:53;5.53;;;2.87;;
1054;SDS011;516;51.482;7.120;2022-09-09T11:59:49;4.80;;;3.37;;
1054;SDS011;516;51.482;7.120;2022-09-09T12:18:00;3.10;;;2.40;;
1054;SDS011;516;51.482;7.120;2022-09-09T12:23:50;4.80;;;2.77;;
1054;SDS011;516;51.482;7.120;2022-09-09T12:35:51;4.47;;;3.17;;
1054;SDS011;516;51.482;7.120;2022-09-09T12:41:50;3.47;;;2.90;;
1054;SDS011;516;51.482;7.120;2022-09-09T12:48:16;4.73;;;4.20;;
1054;SDS011;516;51.482;7.120;2022-09-09T12:50:53;4.13;;;2.70;;
1054;SDS011;516;51.482;7.120;2022-09-09T12:56:45;2.57;;;2.37;;
1054;SDS011;516;51.482;7.120;2022-09-09T13:02:34;3.93;;;3.10;;
1054;SDS011;516;51.482;7.120;2022-09-09T13:08:22;3.33;;;3.03;;
1054;SDS011;516;51.482;7.120;2022-09-09T13:14:16;4.80;;;2.70;;
1054;SDS011;516;51.482;7.120;2022-09-09T13:20:14;4.30;;;3.27;;
1054;SDS011;516;51.482;7.120;2022-09-09T13:26:41;6.27;;;2.57;;
1054;SDS011;516;51.482;7.120;2022-09-09T13:32:29;4.43;;;3.27;;
1054;SDS011;516;51.482;7.120;2022-09-09T13:38:18;5.30;;;2.57;;
1054;SDS011;516;51.482;7.120;2022-09-09T13:44:06;3.53;;;2.77;;
1054;SDS011;516;51.482;7.120;2022-09-09T13:53:19;9.50;;;2.87;;
1054;SDS011;516;51.482;7.120;2022-09-09T13:59:11;5.27;;;2.20;;
1054;SDS011;516;51.482;7.120;2022-09-09T14:05:01;10.37;;;2.93;;
1054;SDS011;516;51.482;7.120;2022-09-09T14:10:48;5.47;;;2.80;;
1054;SDS011;516;51.482;7.120;2022-09-09T14:16:36;4.57;;;2.20;;
1054;SDS011;516;51.482;7.120;2022-09-09T14:22:24;2.57;;;2.07;;
1054;SDS011;516;51.482;7.120;2022-09-09T14:28:13;3.50;;;2.50;;
1054;SDS011;516;51.482;7.120;2022-09-09T14:34:01;4.40;;;3.10;;
1054;SDS011;516;51.482;7.120;2022-09-09T14:39:49;4.73;;;3.70;;
1054;SDS011;516;51.482;7.120;2022-09-09T14:45:37;3.13;;;2.40;;
1054;SDS011;516;51.482;7.120;2022-09-09T14:51:35;3.70;;;2.80;;
1054;SDS011;516;51.482;7.120;2022-09-09T14:57:22;4.43;;;2.47;;
1054;SDS011;516;51.482;7.120;2022-09-09T15:03:11;5.87;;;2.80;;
1054;SDS011;516;51.482;7.120;2022-09-09T15:08:58;7.87;;;4.77;;
1054;SDS011;516;51.482;7.120;2022-09-09T15:14:46;7.30;;;2.00;;
1054;SDS011;516;51.482;7.120;2022-09-09T15:20:34;3.80;;;1.70;;
1054;SDS011;516;51.482;7.120;2022-09-09T15:26:23;4.83;;;1.80;;
1054;SDS011;516;51.482;7.120;2022-09-09T15:32:12;2.43;;;1.60;;
1054;SDS011;516;51.482;7.120;2022-09-09T15:38:01;1.53;;;1.30;;
1054;SDS011;516;51.482;7.120;2022-09-09T15:43:52;2.00;;;1.40;;
1054;SDS011;516;51.482;7.120;2022-09-09T15:53:24;1.60;;;1.37;;
1054;SDS011;516;51.482;7.120;2022-09-09T15:59:11;5.13;;;1.37;;
1054;SDS011;516;51.482;7.120;2022-09-09T16:04:59;2.20;;;1.53;;
1054;SDS011;516;51.482;7.120;2022-09-09T16:10:48;3.27;;;2.33;;
1054;SDS011;516;51.482;7.120;2022-09-09T16:16:36;2.83;;;1.80;;
1054;SDS011;516;51.482;7.120;2022-09-09T16:22:24;1.70;;;1.50;;
1054;SDS011;516;51.482;7.120;2022-09-09T16:28:11;2.40;;;1.87;;
1054;SDS011;516;51.482;7.120;2022-09-09T16:33:59;2.43;;;2.10;;
1054;SDS011;516;51.482;7.120;2022-09-09T16:39:47;2.07;;;1.87;;
1054;SDS011;516;51.482;7.120;2022-09-09T16:45:44;1.80;;;1.70;;
1054;SDS011;516;51.482;7.120;2022-09-09T16:54:56;3.57;;;1.97;;
1054;SDS011;516;51.482;7.120;2022-09-09T17:00:43;2.63;;;2.17;;
1054;SDS011;516;51.482;7.120;2022-09-09T17:06:33;2.83;;;2.63;;
1054;SDS011;516;51.482;7.120;2022-09-09T17:12:21;3.93;;;2.53;;
1054;SDS011;516;51.482;7.120;2022-09-09T17:18:10;2.73;;;2.37;;
1054;SDS011;516;51.482;7.120;2022-09-09T17:23:59;3.30;;;3.03;;
1054;SDS011;516;51.482;7.120;2022-09-09T17:29:47;5.07;;;3.70;;
1054;SDS011;516;51.482;7.120;2022-09-09T17:35:34;4.87;;;3.03;;
1054;SDS011;516;51.482;7.120;2022-09-09T17:41:23;3.57;;;3.00;;
1054;SDS011;516;51.482;7.120;2022-09-09T17:47:13;3.57;;;3.27;;
1054;SDS011;516;51.482;7.120;2022-09-09T17:52:48;3.40;;;3.10;;
1054;SDS011;516;51.482;7.120;2022-09-09T17:58:36;4.73;;;3.10;;
1054;SDS011;516;51.482;7.120;2022-09-09T18:04:24;3.77;;;3.40;;
1054;SDS011;516;51.482;7.120;2022-09-09T18:10:12;4.30;;;3.00;;
1054;SDS011;516;51.482;7.120;2022-09-09T18:16:00;8.53;;;3.00;;
1054;SDS011;516;51.482;7.120;2022-09-09T18:21:48;3.33;;;3.07;;
1054;SDS011;516;51.482;7.120;2022-09-09T18:27:39;4.73;;;3.13;;
1054;SDS011;516;51.482;7.120;2022-09-09T18:33:27;6.00;;;3.00;;
1054;SDS011;516;51.482;7.120;2022-09-09T18:39:16;3.43;;;3.13;;
1054;SDS011;516;51.482;7.120;2022-09-09T18:44:46;3.53;;;3.20;;
1054;SDS011;516;51.482;7.120;2022-09-09T18:57:17;5.00;;;2.90;;
1054;SDS011;516;51.482;7.120;2022-09-09T19:03:05;5.10;;;3.90;;
1054;SDS011;516;51.482;7.120;2022-09-09T19:08:53;4.27;;;2.87;;
1054;SDS011;516;51.482;7.120;2022-09-09T19:14:41;3.47;;;2.53;;
1054;SDS011;516;51.482;7.120;2022-09-09T19:20:30;5.03;;;3.00;;
1054;SDS011;516;51.482;7.120;2022-09-09T19:26:17;3.70;;;3.20;;
1054;SDS011;516;51.482;7.120;2022-09-09T19:32:05;6.43;;;3.70;;
1054;SDS011;516;51.482;7.120;2022-09-09T19:37:53;5.43;;;3.00;;
1054;SDS011;516;51.482;7.120;2022-09-09T19:43:41;4.27;;;3.87;;
1054;SDS011;516;51.482;7.120;2022-09-09T19:49:29;7.97;;;3.77;;
1054;SDS011;516;51.482;7.120;2022-09-09T19:55:17;6.93;;;3.40;;
1054;SDS011;516;51.482;7.120;2022-09-09T20:01:12;5.70;;;3.00;;
1054;SDS011;516;51.482;7.120;2022-09-09T20:07:22;4.53;;;3.00;;
1054;SDS011;516;51.482;7.120;2022-09-09T20:13:10;5.83;;;3.50;;
1054;SDS011;516;51.482;7.120;2022-09-09T20:18:59;4.80;;;3.20;;
1054;SDS011;516;51.482;7.120;2022-09-09T20:24:48;5.00;;;3.63;;
1054;SDS011;516;51.482;7.120;2022-09-09T20:30:35;7.40;;;3.23;;
1054;SDS011;516;51.482;7.120;2022-09-09T20:36:26;4.67;;;3.60;;
1054;SDS011;516;51.482;7.120;2022-09-09T20:42:15;7.33;;;4.20;;
1054;SDS011;516;51.482;7.120;2022-09-09T20:48:06;5.13;;;3.70;;
1054;SDS011;516;51.482;7.120;2022-09-09T20:57:16;7.00;;;4.70;;
1054;SDS011;516;51.482;7.120;2022-09-09T21:03:07;9.00;;;3.80;;
1054;SDS011;516;51.482;7.120;2022-09-09T21:08:55;5.13;;;3.60;;
1054;SDS011;516;51.482;7.120;2022-09-09T21:14:43;7.00;;;4.20;;
1054;SDS011;516;51.482;7.120;2022-09-09T21:20:31;5.73;;;5.13;;
1054;SDS011;516;51.482;7.120;2022-09-09T21:26:19;6.23;;;3.33;;
1054;SDS011;516;51.482;7.120;2022-09-09T21:32:08;5.90;;;3.50;;
1054;SDS011;516;51.482;7.120;2022-09-09T21:37:55;4.53;;;2.87;;
1054;SDS011;516;51.482;7.120;2022-09-09T21:43:49;8.77;;;3.50;;
1054;SDS011;516;51.482;7.120;2022-09-09T21:49:38;6.20;;;3.30;;
1054;SDS011;516;51.482;7.120;2022-09-09T21:55:08;4.13;;;3.00;;
1054;SDS011;516;51.482;7.120;2022-09-09T22:00:55;9.97;;;4.00;;
1054;SDS011;516;51.482;7.120;2022-09-09T22:06:43;11.13;;;3.30;;
1054;SDS011;516;51.482;7.120;2022-09-09T22:12:31;7.80;;;4.00;;
1054;SDS011;516;51.482;7.120;2022-09-09T22:18:19;5.37;;;3.50;;
1054;SDS011;516;51.482;7.120;2022-09-09T22:24:07;5.70;;;2.83;;
1054;SDS011;516;51.482;7.120;2022-09-09T22:29:55;5.97;;;4.00;;
1054;SDS011;516;51.482;7.120;2022-09-09T22:35:43;5.23;;;4.40;;
1054;SDS011;516;51.482;7.120;2022-09-09T22:41:30;6.73;;;4.07;;
1054;SDS011;516;51.482;7.120;2022-09-09T22:47:18;4.87;;;3.20;;
1054;SDS011;516;51.482;7.120;2022-09-09T23:03:02;6.13;;;3.50;;
1054;SDS011;516;51.482;7.120;2022-09-09T23:08:51;7.40;;;3.50;;
1054;SDS011;516;51.482;7.120;2022-09-09T23:14:41;5.40;;;3.93;;
1054;SDS011;516;51.482;7.120;2022-09-09T23:20:29;10.07;;;3.90;;
1054;SDS011;516;51.482;7.120;2022-09-09T23:26:18;6.83;;;3.57;;
1054;SDS011;516;51.482;7.120;2022-09-09T23:32:06;4.97;;;4.17;;
1054;SDS011;516;51.482;7.120;2022-09-09T23:37:54;5.67;;;3.30;;
1054;SDS011;516;51.482;7.120;2022-09-09T23:43:42;4.23;;;3.83;;
1054;SDS011;516;51.482;7.120;2022-09-09T23:49:30;11.70;;;4.20;;
1054;SDS011;516;51.482;7.120;2022-09-09T23:55:10;7.40;;;3.93;;
